createdAt,value
2019-05-26T00:01:19.694Z,3.40
2019-05-26T00:03:48.377Z,3.90
2019-05-26T00:06:16.966Z,3.90
2019-05-26T00:08:45.628Z,4.08
2019-05-26T00:11:14.222Z,3.85
2019-05-26T00:13:42.874Z,3.58
2019-05-26T00:16:11.443Z,3.98
2019-05-26T00:18:40.046Z,3.95
2019-05-26T00:21:08.607Z,3.50
2019-05-26T00:23:37.199Z,3.75
2019-05-26T00:26:05.818Z,4.22
2019-05-26T00:28:34.499Z,3.90
2019-05-26T00:31:03.140Z,4.78
2019-05-26T00:33:31.705Z,4.17
2019-05-26T00:36:00.331Z,4.08
2019-05-26T00:38:28.981Z,3.83
2019-05-26T00:40:57.643Z,3.83
2019-05-26T00:43:26.379Z,3.85
2019-05-26T00:45:55.012Z,3.83
2019-05-26T00:48:23.715Z,4.17
2019-05-26T00:50:52.302Z,3.90
2019-05-26T00:53:21.045Z,3.77
2019-05-26T00:55:49.685Z,3.95
2019-05-26T00:58:18.348Z,3.70
2019-05-26T01:00:47.019Z,4.00
2019-05-26T01:03:15.645Z,4.10
2019-05-26T01:05:44.286Z,4.05
2019-05-26T01:08:13.020Z,3.80
2019-05-26T01:10:41.761Z,4.10
2019-05-26T01:13:10.354Z,4.22
2019-05-26T01:15:39.045Z,4.08
2019-05-26T01:18:07.739Z,3.83
2019-05-26T01:20:36.419Z,4.30
2019-05-26T01:23:05.161Z,3.85
2019-05-26T01:25:33.836Z,4.40
2019-05-26T01:28:02.549Z,4.42
2019-05-26T01:30:39.018Z,4.08
2019-05-26T01:33:08.107Z,4.22
2019-05-26T01:35:40.724Z,4.20
2019-05-26T01:38:23.103Z,4.00
2019-05-26T01:40:44.591Z,4.10
2019-05-26T01:45:41.158Z,4.10
2019-05-26T01:48:10.392Z,4.70
2019-05-26T01:50:39.097Z,4.72
2019-05-26T01:53:07.814Z,4.85
2019-05-26T01:55:36.453Z,5.50
2019-05-26T01:58:05.826Z,5.05
2019-05-26T02:00:34.510Z,6.47
2019-05-26T02:03:03.217Z,5.92
2019-05-26T02:05:31.964Z,5.60
2019-05-26T02:08:00.559Z,6.28
2019-05-26T02:10:29.338Z,6.60
2019-05-26T02:12:58.061Z,7.20
2019-05-26T02:15:28.819Z,7.53
2019-05-26T02:17:57.433Z,7.78
2019-05-26T02:20:26.146Z,7.42
2019-05-26T02:22:54.810Z,7.92
2019-05-26T02:25:25.088Z,7.72
2019-05-26T02:27:53.779Z,7.35
2019-05-26T02:30:23.955Z,7.37
2019-05-26T02:32:52.743Z,7.60
2019-05-26T02:35:21.561Z,8.03
2019-05-26T02:37:50.184Z,7.97
2019-05-26T02:40:19.983Z,8.00
2019-05-26T02:42:48.713Z,7.35
2019-05-26T02:45:18.824Z,7.08
2019-05-26T02:47:47.595Z,7.90
2019-05-26T02:50:17.718Z,7.37
2019-05-26T02:52:46.373Z,8.03
2019-05-26T02:55:15.502Z,7.22
2019-05-26T02:57:44.140Z,6.12
2019-05-26T03:00:14.835Z,6.53
2019-05-26T03:02:43.935Z,6.92
2019-05-26T03:05:13.332Z,6.45
2019-05-26T03:07:45.538Z,6.55
2019-05-26T03:10:15.341Z,6.80
2019-05-26T03:12:46.163Z,6.60
2019-05-26T03:15:17.492Z,6.53
2019-05-26T03:17:48.996Z,6.67
2019-05-26T03:20:18.490Z,7.42
2019-05-26T03:22:48.818Z,6.25
2019-05-26T03:25:17.538Z,6.53
2019-05-26T03:27:46.126Z,6.55
2019-05-26T03:30:14.870Z,7.00
2019-05-26T03:32:43.491Z,5.90
2019-05-26T03:35:12.288Z,6.53
2019-05-26T03:37:40.888Z,6.55
2019-05-26T03:40:10.520Z,6.22
2019-05-26T03:42:39.203Z,6.78
2019-05-26T03:45:08.029Z,6.03
2019-05-26T03:47:36.657Z,6.53
2019-05-26T03:50:08.051Z,6.75
2019-05-26T03:52:37.021Z,7.00
2019-05-26T03:55:07.138Z,6.40
2019-05-26T03:57:35.819Z,6.22
2019-05-26T04:00:08.503Z,6.47
2019-05-26T04:05:08.667Z,6.20
2019-05-26T04:07:37.449Z,6.58
2019-05-26T04:10:07.025Z,6.65
2019-05-26T04:12:35.578Z,6.75
2019-05-26T04:15:06.488Z,6.35
2019-05-26T04:17:35.184Z,6.37
2019-05-26T04:20:05.152Z,6.72
2019-05-26T04:22:33.700Z,7.33
2019-05-26T04:25:02.843Z,6.12
2019-05-26T04:27:31.406Z,6.08
2019-05-26T04:30:00.081Z,6.60
2019-05-26T04:32:28.746Z,6.75
2019-05-26T04:34:57.510Z,6.00
2019-05-26T04:37:26.130Z,6.28
2019-05-26T04:39:54.793Z,6.28
2019-05-26T04:42:23.390Z,6.53
2019-05-26T04:44:51.959Z,5.35
2019-05-26T04:47:20.588Z,6.12
2019-05-26T04:49:49.254Z,5.67
2019-05-26T04:52:17.924Z,5.62
2019-05-26T04:54:46.483Z,5.95
2019-05-26T04:57:15.214Z,6.03
2019-05-26T04:59:43.824Z,4.75
2019-05-26T05:02:12.525Z,6.35
2019-05-26T05:04:41.082Z,5.70
2019-05-26T05:07:09.692Z,5.83
2019-05-26T05:09:38.262Z,5.60
2019-05-26T05:12:06.907Z,6.17
2019-05-26T05:14:35.550Z,5.90
2019-05-26T05:17:04.240Z,6.05
2019-05-26T05:19:32.822Z,5.62
2019-05-26T05:22:01.430Z,6.62
2019-05-26T05:24:30.027Z,6.33
2019-05-26T05:26:58.652Z,6.30
2019-05-26T05:29:27.210Z,5.35
2019-05-26T05:31:55.921Z,5.95
2019-05-26T05:34:24.593Z,5.97
2019-05-26T05:36:53.160Z,6.35
2019-05-26T05:39:21.806Z,5.78
2019-05-26T05:41:50.406Z,5.90
2019-05-26T05:44:19.106Z,6.60
2019-05-26T05:46:47.678Z,6.10
2019-05-26T05:49:16.304Z,6.92
2019-05-26T05:51:44.995Z,6.45
2019-05-26T05:54:13.688Z,6.60
2019-05-26T05:56:42.268Z,6.40
2019-05-26T05:59:10.884Z,6.65
2019-05-26T06:01:39.535Z,6.80
2019-05-26T06:04:08.196Z,6.42
2019-05-26T06:06:36.798Z,7.03
2019-05-26T06:09:07.758Z,6.42
2019-05-26T06:11:36.807Z,6.33
2019-05-26T06:14:05.495Z,6.70
2019-05-26T06:16:34.093Z,6.87
2019-05-26T06:19:02.764Z,6.35
2019-05-26T06:21:31.314Z,6.55
2019-05-26T06:23:59.985Z,6.37
2019-05-26T06:26:29.087Z,6.22
2019-05-26T06:28:58.016Z,6.58
2019-05-26T06:31:26.639Z,6.25
2019-05-26T06:33:55.250Z,6.87
2019-05-26T06:36:24.041Z,6.47
2019-05-26T06:38:52.837Z,6.75
2019-05-26T06:41:32.833Z,6.78
2019-05-26T06:43:51.814Z,6.90
2019-05-26T06:46:20.455Z,6.12
2019-05-26T06:48:49.095Z,5.85
2019-05-26T06:51:17.802Z,6.10
2019-05-26T06:53:46.767Z,6.25
2019-05-26T06:56:15.789Z,6.05
2019-05-26T06:58:44.461Z,5.60
2019-05-26T07:01:13.067Z,5.62
2019-05-26T07:03:41.774Z,5.78
2019-05-26T07:06:11.434Z,5.97
2019-05-26T07:08:40.328Z,5.78
2019-05-26T07:11:08.972Z,5.37
2019-05-26T07:13:37.914Z,5.53
2019-05-26T07:16:06.525Z,4.80
2019-05-26T07:18:35.352Z,4.65
2019-05-26T07:21:04.140Z,5.33
2019-05-26T07:23:33.105Z,5.20
2019-05-26T07:26:01.755Z,5.22
2019-05-26T07:28:30.355Z,5.40
2019-05-26T07:30:58.977Z,4.67
2019-05-26T07:33:27.571Z,5.10
2019-05-26T07:36:00.559Z,4.17
2019-05-26T07:38:30.916Z,4.50
2019-05-26T07:40:59.630Z,4.22
2019-05-26T07:43:28.414Z,4.12
2019-05-26T07:45:57.227Z,3.87
2019-05-26T07:48:30.133Z,3.95
2019-05-26T07:50:59.762Z,4.17
2019-05-26T07:53:29.523Z,3.87
2019-05-26T07:55:58.153Z,4.45
2019-05-26T07:58:26.892Z,4.10
2019-05-26T08:00:55.951Z,4.03
2019-05-26T08:03:25.428Z,3.40
2019-05-26T08:05:54.058Z,4.00
2019-05-26T08:08:22.723Z,3.42
2019-05-26T08:10:51.287Z,3.75
2019-05-26T08:13:19.899Z,4.05
2019-05-26T08:15:49.214Z,4.10
2019-05-26T08:18:18.568Z,3.70
2019-05-26T08:20:47.176Z,3.70
2019-05-26T08:23:15.918Z,3.87
2019-05-26T08:25:44.835Z,3.95
2019-05-26T08:28:13.505Z,3.58
2019-05-26T08:30:42.185Z,3.75
2019-05-26T08:33:10.770Z,3.22
2019-05-26T08:35:40.465Z,3.62
2019-05-26T08:38:09.153Z,3.65
2019-05-26T08:40:37.853Z,3.45
2019-05-26T08:43:08.907Z,3.90
2019-05-26T08:45:37.709Z,2.72
2019-05-26T08:48:06.359Z,2.90
2019-05-26T08:50:35.291Z,3.20
2019-05-26T08:53:04.085Z,2.83
2019-05-26T08:55:32.750Z,3.15
2019-05-26T08:58:01.497Z,2.95
2019-05-26T09:00:30.221Z,3.25
2019-05-26T09:02:59.064Z,2.95
2019-05-26T09:05:27.679Z,3.95
2019-05-26T09:07:56.408Z,3.08
2019-05-26T09:10:25.157Z,3.10
2019-05-26T09:13:00.605Z,3.87
2019-05-26T09:15:24.176Z,3.80
2019-05-26T09:17:53.006Z,4.55
2019-05-26T09:20:22.040Z,3.58
2019-05-26T09:22:50.773Z,4.03
2019-05-26T09:25:20.909Z,3.60
2019-05-26T09:27:49.629Z,3.52
2019-05-26T09:30:18.681Z,3.58
2019-05-26T09:32:47.350Z,3.10
2019-05-26T09:35:17.057Z,3.80
2019-05-26T09:37:45.777Z,3.30
2019-05-26T09:40:14.638Z,3.55
2019-05-26T09:42:43.521Z,3.87
2019-05-26T09:45:13.928Z,3.45
2019-05-26T09:47:42.502Z,3.72
2019-05-26T09:50:13.456Z,4.05
2019-05-26T09:52:42.029Z,4.00
2019-05-26T09:55:11.201Z,3.55
2019-05-26T09:57:40.203Z,3.40
2019-05-26T10:00:10.432Z,3.05
2019-05-26T10:02:39.150Z,3.25
2019-05-26T10:05:08.687Z,3.25
2019-05-26T10:07:37.498Z,3.08
2019-05-26T10:10:07.510Z,3.10
2019-05-26T10:12:36.170Z,3.83
2019-05-26T10:15:08.369Z,3.83
2019-05-26T10:17:37.084Z,3.15
2019-05-26T10:20:09.457Z,3.58
2019-05-26T10:22:38.161Z,3.58
2019-05-26T10:25:07.707Z,2.95
2019-05-26T10:27:36.532Z,3.15
2019-05-26T10:30:15.612Z,3.17
2019-05-26T10:32:44.323Z,4.22
2019-05-26T10:35:13.034Z,4.30
2019-05-26T10:37:41.748Z,4.37
2019-05-26T10:40:11.323Z,5.42
2019-05-26T10:42:40.022Z,5.42
2019-05-26T10:45:09.856Z,4.80
2019-05-26T10:47:38.562Z,4.28
2019-05-26T10:50:08.601Z,3.58
2019-05-26T10:52:37.360Z,3.77
2019-05-26T10:55:10.247Z,3.55
2019-05-26T10:57:39.118Z,3.50
2019-05-26T11:00:09.123Z,3.72
2019-05-26T11:02:38.101Z,2.60
2019-05-26T11:05:08.046Z,2.60
2019-05-26T11:07:37.062Z,2.17
2019-05-26T11:10:07.763Z,2.98
2019-05-26T11:12:36.625Z,2.47
2019-05-26T11:15:07.284Z,2.30
2019-05-26T11:17:36.016Z,2.55
2019-05-26T11:20:09.827Z,2.10
2019-05-26T11:22:39.661Z,2.05
2019-05-26T11:25:09.035Z,2.22
2019-05-26T11:27:37.705Z,2.52
2019-05-26T11:30:10.932Z,2.83
2019-05-26T11:32:39.922Z,2.70
2019-05-26T11:35:09.148Z,2.67
2019-05-26T11:37:37.973Z,2.90
2019-05-26T11:40:07.525Z,2.40
2019-05-26T11:42:36.369Z,2.05
2019-05-26T11:45:06.971Z,2.90
2019-05-26T11:47:35.539Z,3.10
2019-05-26T11:50:07.433Z,4.42
2019-05-26T11:52:36.063Z,3.33
2019-05-26T11:55:08.619Z,2.33
2019-05-26T11:57:37.757Z,2.42
2019-05-26T12:00:13.329Z,3.20
2019-05-26T12:02:43.103Z,2.95
2019-05-26T12:05:12.375Z,1.95
2019-05-26T12:07:41.096Z,1.90
2019-05-26T12:10:13.886Z,2.08
2019-05-26T12:12:41.120Z,1.80
2019-05-26T12:15:11.161Z,2.22
2019-05-26T12:17:39.979Z,2.80
2019-05-26T12:20:09.698Z,2.45
2019-05-26T12:22:38.267Z,1.90
2019-05-26T12:25:07.698Z,1.92
2019-05-26T12:27:36.465Z,1.90
2019-05-26T12:30:09.396Z,2.00
2019-05-26T12:32:38.067Z,2.35
2019-05-26T12:35:10.732Z,1.55
2019-05-26T12:40:08.412Z,1.80
2019-05-26T12:42:37.259Z,2.05
2019-05-26T12:45:08.248Z,2.20
2019-05-26T12:47:36.890Z,1.87
2019-05-26T12:50:09.312Z,2.45
2019-05-26T12:52:38.481Z,2.60
2019-05-26T12:55:09.229Z,2.95
2019-05-26T12:57:37.983Z,1.75
2019-05-26T13:00:13.857Z,2.47
2019-05-26T13:02:42.575Z,2.52
2019-05-26T13:05:11.542Z,2.20
2019-05-26T13:07:40.301Z,1.95
2019-05-26T13:10:09.870Z,7.15
2019-05-26T13:12:38.613Z,1.82
2019-05-26T13:15:11.346Z,2.15
2019-05-26T13:17:40.380Z,2.12
2019-05-26T13:20:10.035Z,2.52
2019-05-26T13:22:40.325Z,3.00
2019-05-26T13:25:10.233Z,1.80
2019-05-26T13:27:39.091Z,2.17
2019-05-26T13:30:10.170Z,3.30
2019-05-26T13:32:38.926Z,2.22
2019-05-26T13:35:08.673Z,3.08
2019-05-26T13:37:39.221Z,2.67
2019-05-26T13:40:09.098Z,2.27
2019-05-26T13:42:38.242Z,2.20
2019-05-26T13:45:21.649Z,2.20
2019-05-26T13:47:41.230Z,2.33
2019-05-26T13:50:10.906Z,2.40
2019-05-26T13:52:39.491Z,2.52
2019-05-26T13:55:09.437Z,3.12
2019-05-26T13:57:38.040Z,2.37
2019-05-26T14:00:09.113Z,2.80
2019-05-26T14:02:38.109Z,2.37
2019-05-26T14:05:08.568Z,2.17
2019-05-26T14:07:38.327Z,2.65
2019-05-26T14:10:07.706Z,2.67
2019-05-26T14:12:36.856Z,2.15
2019-05-26T14:15:07.498Z,2.45
2019-05-26T14:17:37.675Z,2.62
2019-05-26T14:20:08.346Z,3.60
2019-05-26T14:22:37.150Z,3.80
2019-05-26T14:25:06.728Z,4.35
2019-05-26T14:27:35.420Z,4.40
2019-05-26T14:30:06.335Z,3.55
2019-05-26T14:32:35.009Z,4.22
2019-05-26T14:35:05.093Z,3.85
2019-05-26T14:37:33.676Z,3.42
2019-05-26T14:40:02.455Z,3.77
2019-05-26T14:42:31.027Z,3.52
2019-05-26T14:45:03.139Z,3.40
2019-05-26T14:47:30.067Z,3.25
2019-05-26T14:49:58.735Z,3.22
2019-05-26T14:52:27.352Z,3.58
2019-05-26T14:54:55.971Z,3.42
2019-05-26T14:57:24.720Z,2.90
2019-05-26T14:59:53.714Z,3.83
2019-05-26T15:02:22.728Z,2.52
2019-05-26T15:04:51.279Z,2.85
2019-05-26T15:07:19.975Z,3.35
2019-05-26T15:09:48.539Z,2.25
2019-05-26T15:12:17.260Z,2.52
2019-05-26T15:14:46.239Z,2.42
2019-05-26T15:17:14.858Z,2.52
2019-05-26T15:19:43.952Z,2.52
2019-05-26T15:22:12.598Z,2.37
2019-05-26T15:24:41.400Z,2.60
2019-05-26T15:27:10.016Z,2.20
2019-05-26T15:29:38.715Z,2.62
2019-05-26T15:32:07.460Z,2.08
2019-05-26T15:34:36.346Z,2.40
2019-05-26T15:37:05.203Z,2.15
2019-05-26T15:39:33.950Z,2.70
2019-05-26T15:42:04.105Z,2.60
2019-05-26T15:44:32.971Z,2.40
2019-05-26T15:47:01.561Z,2.90
2019-05-26T15:49:30.161Z,2.27
2019-05-26T15:51:58.827Z,2.33
2019-05-26T15:54:27.575Z,2.05
2019-05-26T15:56:59.379Z,2.22
2019-05-26T15:59:28.154Z,2.30
2019-05-26T16:01:56.831Z,2.30
2019-05-26T16:04:29.224Z,7.37
2019-05-26T16:06:57.736Z,3.77
2019-05-26T16:09:26.541Z,2.95
2019-05-26T16:11:55.778Z,2.83
2019-05-26T16:14:24.401Z,2.90
2019-05-26T16:16:53.121Z,2.12
2019-05-26T16:19:21.805Z,2.08
2019-05-26T16:21:50.430Z,2.47
2019-05-26T16:24:19.166Z,2.20
2019-05-26T16:26:47.911Z,2.60
2019-05-26T16:29:20.607Z,2.45
2019-05-26T16:31:49.041Z,2.17
2019-05-26T16:34:19.771Z,2.25
2019-05-26T16:36:48.527Z,2.35
2019-05-26T16:39:17.358Z,2.22
2019-05-26T16:41:46.090Z,2.42
2019-05-26T16:44:14.764Z,2.40
2019-05-26T16:46:55.508Z,2.47
2019-05-26T16:49:13.705Z,2.40
2019-05-26T16:51:44.797Z,2.40
2019-05-26T16:54:13.456Z,2.85
2019-05-26T16:56:42.155Z,2.20
2019-05-26T16:59:10.932Z,2.30
2019-05-26T17:01:39.647Z,2.42
2019-05-26T17:04:09.528Z,2.50
2019-05-26T17:06:38.023Z,2.27
2019-05-26T17:09:08.578Z,2.60
2019-05-26T17:11:37.446Z,2.42
2019-05-26T17:14:06.258Z,2.15
2019-05-26T17:16:35.102Z,2.30
2019-05-26T17:19:03.866Z,2.00
2019-05-26T17:21:33.061Z,2.15
2019-05-26T17:24:01.671Z,1.92
2019-05-26T17:26:30.312Z,2.02
2019-05-26T17:28:58.981Z,1.90
2019-05-26T17:31:27.722Z,2.10
2019-05-26T17:33:56.408Z,2.33
2019-05-26T17:36:25.168Z,2.17
2019-05-26T17:38:53.860Z,2.50
2019-05-26T17:41:22.591Z,2.20
2019-05-26T17:43:51.584Z,2.40
2019-05-26T17:46:23.282Z,2.00
2019-05-26T17:48:51.895Z,1.90
2019-05-26T17:51:20.733Z,2.10
2019-05-26T17:53:49.454Z,2.30
2019-05-26T17:56:18.275Z,2.08
2019-05-26T17:58:46.878Z,1.85
2019-05-26T18:01:15.607Z,2.40
2019-05-26T18:03:44.652Z,2.02
2019-05-26T18:06:13.355Z,2.25
2019-05-26T18:08:42.442Z,2.70
2019-05-26T18:11:11.305Z,3.22
2019-05-26T18:13:39.929Z,3.85
2019-05-26T18:16:08.895Z,3.00
2019-05-26T18:18:37.612Z,2.95
2019-05-26T18:21:06.387Z,2.80
2019-05-26T18:23:35.060Z,3.83
2019-05-26T18:26:03.814Z,3.72
2019-05-26T18:28:32.566Z,3.05
2019-05-26T18:31:01.275Z,2.60
2019-05-26T18:33:29.825Z,2.92
2019-05-26T18:35:58.594Z,3.05
2019-05-26T18:38:27.345Z,3.72
2019-05-26T18:40:56.094Z,4.70
2019-05-26T18:43:36.226Z,4.65
2019-05-26T18:46:04.921Z,4.95
2019-05-26T18:48:33.599Z,4.42
2019-05-26T18:51:10.726Z,4.87
2019-05-26T18:53:39.458Z,4.55
2019-05-26T18:56:08.205Z,5.28
2019-05-26T18:58:37.343Z,6.30
2019-05-26T19:01:06.216Z,5.80
2019-05-26T19:03:34.870Z,6.22
2019-05-26T19:06:03.478Z,7.08
2019-05-26T19:08:32.162Z,7.47
2019-05-26T19:11:00.910Z,7.58
2019-05-26T19:13:29.535Z,6.83
2019-05-26T19:15:58.351Z,7.47
2019-05-26T19:18:27.010Z,7.67
2019-05-26T19:20:55.679Z,7.53
2019-05-26T19:23:27.379Z,7.12
2019-05-26T19:25:56.099Z,8.08
2019-05-26T19:28:24.898Z,10.00
2019-05-26T19:30:56.705Z,8.73
2019-05-26T19:33:25.331Z,7.60
2019-05-26T19:35:54.211Z,6.28
2019-05-26T19:38:22.808Z,6.00
2019-05-26T19:40:51.543Z,7.58
2019-05-26T19:43:20.110Z,7.42
2019-05-26T19:45:48.824Z,6.97
2019-05-26T19:48:17.632Z,7.35
2019-05-26T19:50:46.286Z,6.42
2019-05-26T19:53:14.886Z,6.35
2019-05-26T19:55:43.540Z,6.70
2019-05-26T19:58:12.377Z,6.33
2019-05-26T20:00:41.125Z,6.87
2019-05-26T20:03:09.758Z,5.92
2019-05-26T20:05:38.418Z,6.90
2019-05-26T20:08:06.949Z,6.00
2019-05-26T20:10:35.677Z,6.75
2019-05-26T20:13:04.447Z,5.37
2019-05-26T20:15:33.135Z,5.87
2019-05-26T20:18:02.149Z,5.95
2019-05-26T20:20:31.129Z,6.53
2019-05-26T20:22:59.662Z,6.80
2019-05-26T20:25:28.367Z,5.90
2019-05-26T20:27:57.150Z,6.65
2019-05-26T20:30:25.774Z,7.55
2019-05-26T20:32:54.431Z,7.47
2019-05-26T20:35:22.994Z,6.30
2019-05-26T20:37:51.581Z,6.33
2019-05-26T20:40:20.607Z,6.40
2019-05-26T20:42:49.210Z,7.33
2019-05-26T20:45:18.037Z,6.62
2019-05-26T20:47:46.755Z,6.60
2019-05-26T20:50:28.769Z,6.30
2019-05-26T20:52:46.640Z,6.87
2019-05-26T20:55:16.579Z,7.17
2019-05-26T20:57:56.025Z,8.30
2019-05-26T21:00:24.997Z,8.33
2019-05-26T21:02:53.615Z,8.80
2019-05-26T21:05:22.366Z,8.80
2019-05-26T21:07:51.140Z,8.95
2019-05-26T21:10:19.849Z,9.08
2019-05-26T21:12:48.425Z,8.83
2019-05-26T21:15:18.276Z,10.38
2019-05-26T21:17:46.959Z,10.80
2019-05-26T21:20:17.238Z,9.58
2019-05-26T21:22:45.889Z,10.03
2019-05-26T21:25:15.020Z,10.60
2019-05-26T21:27:43.590Z,10.00
2019-05-26T21:30:12.357Z,9.80
2019-05-26T21:32:40.970Z,10.65
2019-05-26T21:35:10.182Z,11.00
2019-05-26T21:37:38.743Z,10.80
2019-05-26T21:40:09.191Z,10.80
2019-05-26T21:42:37.770Z,11.97
2019-05-26T21:45:08.021Z,12.07
2019-05-26T21:47:36.748Z,12.63
2019-05-26T21:50:10.518Z,11.97
2019-05-26T21:52:39.348Z,12.20
2019-05-26T21:55:08.286Z,13.68
2019-05-26T21:57:36.987Z,13.97
2019-05-26T22:00:12.474Z,13.00
2019-05-26T22:02:41.113Z,14.13
2019-05-26T22:05:09.848Z,13.80
2019-05-26T22:07:38.550Z,14.57
2019-05-26T22:10:08.099Z,14.97
2019-05-26T22:12:36.686Z,14.03
2019-05-26T22:15:07.363Z,14.67
2019-05-26T22:17:36.063Z,15.40
2019-05-26T22:20:06.490Z,15.03
2019-05-26T22:22:35.201Z,14.87
2019-05-26T22:25:05.714Z,15.40
2019-05-26T22:27:34.705Z,14.70
2019-05-26T22:30:03.614Z,14.83
2019-05-26T22:32:32.335Z,15.05
2019-05-26T22:35:01.050Z,16.07
2019-05-26T22:37:29.761Z,14.67
2019-05-26T22:39:58.470Z,14.98
2019-05-26T22:42:27.184Z,15.07
2019-05-26T22:44:55.902Z,15.03
2019-05-26T22:47:24.636Z,15.07
2019-05-26T22:49:53.334Z,14.40
2019-05-26T22:52:22.038Z,14.40
2019-05-26T22:54:50.770Z,14.87
2019-05-26T22:57:19.546Z,14.30
2019-05-26T22:59:48.246Z,15.50
2019-05-26T23:02:16.958Z,15.33
2019-05-26T23:04:45.966Z,15.60
2019-05-26T23:07:14.716Z,14.50
2019-05-26T23:09:43.432Z,13.78
2019-05-26T23:12:12.139Z,14.00
2019-05-26T23:14:40.854Z,14.27
2019-05-26T23:17:09.579Z,14.57
2019-05-26T23:19:38.289Z,13.90
2019-05-26T23:22:07.069Z,14.00
2019-05-26T23:24:35.739Z,14.73
2019-05-26T23:27:04.742Z,13.97
2019-05-26T23:29:33.313Z,14.07
2019-05-26T23:32:01.918Z,14.33
2019-05-26T23:34:30.703Z,14.03
2019-05-26T23:36:59.290Z,14.80
2019-05-26T23:39:27.969Z,15.40
2019-05-26T23:41:56.678Z,16.07
2019-05-26T23:44:25.566Z,16.07
2019-05-26T23:46:54.098Z,15.53
2019-05-26T23:49:22.812Z,17.48
2019-05-26T23:51:51.470Z,17.03
2019-05-26T23:54:20.031Z,18.52
2019-05-26T23:56:48.603Z,17.50
2019-05-26T23:59:17.312Z,17.83
